Terminal Aerodrome Forecast
Issued by NWS Green Bay, WI

Home | Current Version | Previous Version | Text Only | Print | Product List | Glossary Off
Versions: 1 2 3 4 5 6 7 8 9 10 11 12 13 14 15 16 17 18 19 20 21 22 23 24 25 26 27 28 29 30 31 32 33 34 35 36 37 38 39 40 41 42 43 44 45

681
FTUS43 KGRB 260012 AAA
TAFGRB
TAF AMD
KGRB 260012Z 2600/2624 05014G21KT 4SM -RA BR OVC006
      TEMPO 2600/2604 1SM -RA BR OVC003
     FM260400 04010G18KT 3SM -RA BR OVC007
      TEMPO 2604/2607 2SM -RA BR OVC005
     FM260700 04009KT 2SM -DZ BR OVC003
     FM261800 03008KT 3SM -RA BR OVC005=

USA.gov is the U.S. government's official web portal to all federal, state and local government web resources and services.